Time;durP1;ratioP1;P1;durP2;ratioP2;P2;SDS_P1;SDS_P2;PMS_P1;PMS_P2;Temp;Humidity;BMP_temperature;BMP_pressure;BME280_temperature;BME280_humidity;BME280_pressure;Samples;Min_cycle;Max_cycle;Signal;HPM_P1;HPM_P2
2024/03/01 00:00:29;;;;;;;117.47;57.90;;;;;;;;;;5092884;28;20027;-80
2024/03/01 00:02:55;;;;;;;125.00;59.90;;;;;;;;;;5090442;28;20039;-74
2024/03/01 00:05:22;;;;;;;114.68;60.08;;;;;;;;;;5078059;28;20025;-80
2024/03/01 00:07:48;;;;;;;116.82;59.70;;;;;;;;;;5089048;28;20103;-74
2024/03/01 00:10:14;;;;;;;112.82;56.25;;;;;;;;;;5085102;28;20485;-80
2024/03/01 00:12:40;;;;;;;116.47;59.15;;;;;;;;;;5092372;28;20017;-74
2024/03/01 00:15:07;;;;;;;116.75;57.38;;;;;;;;;;5092631;28;20031;-74
2024/03/01 00:17:34;;;;;;;120.00;59.75;;;;;;;;;;5092346;28;20389;-81
2024/03/01 00:20:00;;;;;;;113.07;55.17;;;;;;;;;;5093455;28;20632;-81
2024/03/01 00:22:26;;;;;;;122.28;59.38;;;;;;;;;;5093418;28;20053;-75
2024/03/01 00:24:52;;;;;;;110.72;58.00;;;;;;;;;;5085521;28;20497;-74
2024/03/01 00:27:19;;;;;;;121.28;59.65;;;;;;;;;;5091970;28;20541;-74
2024/03/01 00:29:45;;;;;;;117.53;58.72;;;;;;;;;;5087000;28;20077;-74
2024/03/01 00:32:11;;;;;;;111.43;57.13;;;;;;;;;;5093480;28;20020;-74
2024/03/01 00:34:37;;;;;;;110.63;58.83;;;;;;;;;;5093293;28;20016;-80
2024/03/01 00:37:03;;;;;;;121.28;58.83;;;;;;;;;;5089241;28;20029;-74
2024/03/01 00:39:30;;;;;;;125.85;63.08;;;;;;;;;;5078956;28;20029;-74
2024/03/01 00:41:56;;;;;;;120.65;59.92;;;;;;;;;;5010226;28;20037;-80
2024/03/01 00:44:22;;;;;;;124.47;59.53;;;;;;;;;;5078412;28;20056;-80
2024/03/01 00:46:48;;;;;;;118.22;59.20;;;;;;;;;;5009630;28;20118;-74
2024/03/01 00:49:15;;;;;;;114.93;58.15;;;;;;;;;;5078202;28;20033;-79
2024/03/01 00:51:41;;;;;;;118.15;62.28;;;;;;;;;;5078112;28;20079;-80
2024/03/01 00:54:07;;;;;;;115.30;58.63;;;;;;;;;;5010192;28;20026;-74
2024/03/01 00:56:33;;;;;;;116.03;57.67;;;;;;;;;;5010313;28;20025;-79
2024/03/01 00:58:59;;;;;;;109.75;58.20;;;;;;;;;;5074896;28;20480;-74
2024/03/01 01:01:25;;;;;;;114.20;58.42;;;;;;;;;;5075982;28;20060;-74
2024/03/01 01:03:51;;;;;;;115.50;59.65;;;;;;;;;;4999434;28;20496;-74
2024/03/01 01:06:17;;;;;;;121.65;59.47;;;;;;;;;;5008539;28;20026;-74
2024/03/01 01:08:44;;;;;;;115.25;60.35;;;;;;;;;;5010047;28;20033;-78
2024/03/01 01:11:10;;;;;;;116.68;56.60;;;;;;;;;;5002747;28;20067;-79
2024/03/01 01:13:36;;;;;;;122.25;59.17;;;;;;;;;;5010421;28;20037;-74
2024/03/01 01:16:02;;;;;;;109.20;55.33;;;;;;;;;;5006794;28;20376;-74
2024/03/01 01:18:28;;;;;;;110.10;55.20;;;;;;;;;;5064488;28;20474;-80
2024/03/01 01:20:54;;;;;;;112.88;54.75;;;;;;;;;;4996753;28;20382;-74
2024/03/01 01:23:20;;;;;;;113.82;56.78;;;;;;;;;;5077616;28;20022;-79
2024/03/01 01:25:46;;;;;;;115.97;61.55;;;;;;;;;;4998084;28;20038;-79
2024/03/01 01:28:13;;;;;;;122.15;60.40;;;;;;;;;;5077552;28;20091;-74
2024/03/01 01:30:40;;;;;;;113.45;61.15;;;;;;;;;;5077364;28;20018;-74
2024/03/01 01:33:06;;;;;;;122.50;60.00;;;;;;;;;;5077813;28;20095;-80
2024/03/01 01:35:32;;;;;;;110.13;58.97;;;;;;;;;;5077526;28;20029;-81
2024/03/01 01:37:59;;;;;;;110.20;58.65;;;;;;;;;;5009890;28;20079;-74
2024/03/01 01:40:30;;;;;;;111.13;58.22;;;;;;;;;;5077043;28;20060;-75
2024/03/01 01:42:56;;;;;;;116.72;58.08;;;;;;;;;;5009475;28;20070;-80
2024/03/01 01:45:22;;;;;;;116.13;60.72;;;;;;;;;;5077566;28;20060;-80
2024/03/01 01:47:48;;;;;;;109.40;57.08;;;;;;;;;;5000816;28;20499;-74
2024/03/01 01:50:15;;;;;;;110.68;58.10;;;;;;;;;;5077048;28;20041;-74
2024/03/01 01:52:42;;;;;;;107.85;56.33;;;;;;;;;;5007153;28;20076;-74
2024/03/01 01:55:09;;;;;;;111.30;56.75;;;;;;;;;;5006476;28;20563;-80
2024/03/01 01:57:35;;;;;;;109.68;59.72;;;;;;;;;;5003466;28;20026;-75
2024/03/01 02:00:05;;;;;;;115.97;61.10;;;;;;;;;;4998088;28;20033;-80
2024/03/01 02:02:31;;;;;;;117.40;56.28;;;;;;;;;;5076969;28;20034;-74
2024/03/01 02:04:58;;;;;;;118.32;58.83;;;;;;;;;;4998920;28;20024;-80
2024/03/01 02:07:24;;;;;;;116.78;59.42;;;;;;;;;;5009430;28;20129;-80
2024/03/01 02:09:51;;;;;;;114.07;58.67;;;;;;;;;;5005974;28;20022;-80
2024/03/01 02:12:17;;;;;;;116.18;58.10;;;;;;;;;;5004084;28;20030;-80
2024/03/01 02:14:44;;;;;;;101.88;54.95;;;;;;;;;;5010244;28;20029;-73
2024/03/01 02:17:10;;;;;;;109.85;56.00;;;;;;;;;;5012660;28;20022;-74
2024/03/01 02:19:36;;;;;;;117.28;57.72;;;;;;;;;;5081084;28;20018;-74
2024/03/01 02:22:05;;;;;;;112.43;57.10;;;;;;;;;;5011251;28;20113;-80
2024/03/01 02:24:31;;;;;;;109.85;55.85;;;;;;;;;;5080895;28;20113;-74
2024/03/01 02:26:58;;;;;;;102.68;54.85;;;;;;;;;;5080105;28;20034;-74
2024/03/01 02:29:24;;;;;;;102.18;54.25;;;;;;;;;;5007717;28;20019;-80
2024/03/01 02:31:50;;;;;;;106.53;55.58;;;;;;;;;;5057531;28;20503;-80
2024/03/01 02:34:16;;;;;;;98.50;54.10;;;;;;;;;;5012794;28;20030;-74
2024/03/01 02:36:42;;;;;;;111.93;55.70;;;;;;;;;;5079686;28;20026;-74
2024/03/01 02:39:16;;;;;;;103.30;56.40;;;;;;;;;;5005917;28;20479;-74
2024/03/01 02:41:46;;;;;;;104.32;54.83;;;;;;;;;;5087546;28;20394;-74
2024/03/01 02:44:12;;;;;;;110.88;58.42;;;;;;;;;;5087741;28;20031;-80
2024/03/01 02:46:39;;;;;;;108.60;54.40;;;;;;;;;;5087985;28;20162;-74
2024/03/01 02:49:05;;;;;;;97.80;52.67;;;;;;;;;;5088359;28;20402;-74
2024/03/01 02:51:31;;;;;;;105.45;54.55;;;;;;;;;;5088969;28;20032;-81
2024/03/01 02:53:58;;;;;;;102.95;55.42;;;;;;;;;;5092579;28;20035;-74
2024/03/01 02:56:24;;;;;;;99.63;51.25;;;;;;;;;;5088692;28;20081;-80
2024/03/01 02:58:50;;;;;;;96.07;52.20;;;;;;;;;;5100168;28;20028;-75
2024/03/01 03:01:16;;;;;;;106.78;52.40;;;;;;;;;;5095271;28;20431;-74
2024/03/01 03:03:42;;;;;;;92.32;48.97;;;;;;;;;;5095209;28;20020;-80
2024/03/01 03:06:10;;;;;;;106.82;55.08;;;;;;;;;;5094951;28;20577;-74
2024/03/01 03:08:36;;;;;;;106.28;53.85;;;;;;;;;;5088174;28;20029;-79
2024/03/01 03:11:02;;;;;;;104.32;56.13;;;;;;;;;;5095554;28;20024;-80
2024/03/01 03:13:28;;;;;;;99.68;53.53;;;;;;;;;;5094982;28;20103;-74
2024/03/01 03:15:54;;;;;;;99.18;50.83;;;;;;;;;;5094880;28;20056;-74
2024/03/01 03:18:20;;;;;;;100.15;53.72;;;;;;;;;;5092959;28;20021;-74
2024/03/01 03:20:46;;;;;;;95.38;50.92;;;;;;;;;;5094431;28;20378;-74
2024/03/01 03:23:12;;;;;;;99.18;54.88;;;;;;;;;;5090322;28;20371;-80
2024/03/01 03:25:38;;;;;;;103.15;54.75;;;;;;;;;;5090366;28;20110;-80
2024/03/01 03:28:04;;;;;;;96.03;52.85;;;;;;;;;;5084329;28;20501;-74
2024/03/01 03:30:30;;;;;;;104.97;53.25;;;;;;;;;;5093185;28;20432;-79
2024/03/01 03:32:56;;;;;;;97.95;53.80;;;;;;;;;;5091541;28;20020;-80
2024/03/01 03:35:22;;;;;;;97.70;51.65;;;;;;;;;;5090716;28;20024;-74
2024/03/01 03:37:48;;;;;;;107.55;53.88;;;;;;;;;;5093327;28;20034;-74
2024/03/01 03:40:15;;;;;;;104.60;54.03;;;;;;;;;;5055853;28;20547;-74
2024/03/01 03:42:41;;;;;;;100.03;54.05;;;;;;;;;;5043611;28;20030;-81
2024/03/01 03:45:08;;;;;;;102.70;53.42;;;;;;;;;;5010506;28;20010;-81
2024/03/01 03:47:36;;;;;;;104.57;53.90;;;;;;;;;;5078913;28;20052;-74
2024/03/01 03:50:06;;;;;;;103.60;54.60;;;;;;;;;;5079333;28;20014;-80
2024/03/01 03:52:33;;;;;;;100.18;54.40;;;;;;;;;;5079093;28;20026;-74
2024/03/01 03:55:00;;;;;;;95.85;54.28;;;;;;;;;;5002018;28;20011;-74
2024/03/01 03:57:26;;;;;;;100.25;54.10;;;;;;;;;;5004916;28;20053;-79
2024/03/01 03:59:52;;;;;;;103.65;51.38;;;;;;;;;;4999150;28;20030;-74
2024/03/01 04:02:18;;;;;;;106.38;55.45;;;;;;;;;;5005923;28;20018;-74
2024/03/01 04:04:44;;;;;;;109.32;56.47;;;;;;;;;;5011310;28;20052;-73
2024/03/01 04:07:10;;;;;;;99.53;54.03;;;;;;;;;;5078445;28;20033;-74
2024/03/01 04:09:36;;;;;;;99.72;53.85;;;;;;;;;;5007244;28;20033;-74
2024/03/01 04:12:05;;;;;;;105.32;52.60;;;;;;;;;;5010923;28;20152;-74
2024/03/01 04:14:32;;;;;;;106.68;56.55;;;;;;;;;;5010927;28;20417;-74
2024/03/01 04:16:58;;;;;;;91.15;51.05;;;;;;;;;;5077735;28;20032;-80
2024/03/01 04:19:24;;;;;;;96.50;54.75;;;;;;;;;;5010843;28;20038;-80
2024/03/01 04:21:53;;;;;;;112.28;60.95;;;;;;;;;;5010962;28;20020;-80
2024/03/01 04:24:20;;;;;;;104.25;58.35;;;;;;;;;;5010912;28;20067;-78
2024/03/01 04:26:46;;;;;;;109.38;57.22;;;;;;;;;;5010643;28;20087;-79
2024/03/01 04:29:12;;;;;;;111.75;59.03;;;;;;;;;;5078168;28;20113;-74
2024/03/01 04:31:40;;;;;;;103.95;54.28;;;;;;;;;;5010966;28;20430;-74
2024/03/01 04:34:06;;;;;;;111.35;56.75;;;;;;;;;;5010515;28;20021;-79
2024/03/01 04:36:33;;;;;;;112.38;60.50;;;;;;;;;;5001019;28;20032;-74
2024/03/01 04:38:59;;;;;;;113.90;60.35;;;;;;;;;;5010208;28;20034;-79
2024/03/01 04:41:25;;;;;;;108.72;56.13;;;;;;;;;;5004036;28;20130;-74
2024/03/01 04:43:51;;;;;;;112.55;58.53;;;;;;;;;;5004585;28;20025;-79
2024/03/01 04:46:17;;;;;;;109.25;55.80;;;;;;;;;;5081169;28;20491;-74
2024/03/01 04:48:43;;;;;;;117.40;56.50;;;;;;;;;;5004013;28;20062;-73
2024/03/01 04:51:12;;;;;;;106.60;59.05;;;;;;;;;;5078011;28;20498;-78
2024/03/01 04:53:39;;;;;;;114.10;62.88;;;;;;;;;;5078281;28;20033;-79
2024/03/01 04:56:05;;;;;;;123.00;62.15;;;;;;;;;;5010269;28;20048;-73
2024/03/01 04:58:31;;;;;;;118.68;63.90;;;;;;;;;;5010401;28;20040;-79
2024/03/01 05:01:00;;;;;;;121.43;66.95;;;;;;;;;;5010156;28;20476;-79
2024/03/01 05:03:28;;;;;;;117.75;62.38;;;;;;;;;;5077719;28;20029;-74
2024/03/01 05:05:55;;;;;;;118.15;62.65;;;;;;;;;;4997393;28;20033;-75
2024/03/01 05:08:22;;;;;;;91.68;50.03;;;;;;;;;;5077675;28;20034;-74
2024/03/01 05:10:49;;;;;;;115.22;62.42;;;;;;;;;;5010040;28;20040;-75
2024/03/01 05:13:19;;;;;;;122.13;66.10;;;;;;;;;;5004970;28;20022;-79
2024/03/01 05:15:46;;;;;;;124.15;64.88;;;;;;;;;;5009865;28;20429;-80
2024/03/01 05:18:12;;;;;;;120.57;63.28;;;;;;;;;;5009688;28;20547;-74
2024/03/01 05:20:39;;;;;;;111.97;60.95;;;;;;;;;;5001562;28;20068;-79
2024/03/01 05:23:05;;;;;;;116.30;61.83;;;;;;;;;;4998668;28;20038;-74
2024/03/01 05:25:31;;;;;;;121.15;61.58;;;;;;;;;;5009880;28;20022;-74
2024/03/01 05:27:57;;;;;;;122.57;62.20;;;;;;;;;;4998007;28;20037;-74
2024/03/01 05:30:24;;;;;;;109.95;63.67;;;;;;;;;;5001383;28;20030;-79
2024/03/01 05:32:51;;;;;;;129.32;65.28;;;;;;;;;;5077148;28;20014;-74
2024/03/01 05:35:18;;;;;;;122.20;63.90;;;;;;;;;;5009767;28;20040;-80
2024/03/01 05:37:44;;;;;;;108.05;61.47;;;;;;;;;;5077419;28;20380;-74
2024/03/01 05:40:12;;;;;;;112.07;61.70;;;;;;;;;;5077364;28;20054;-76
2024/03/01 05:42:41;;;;;;;111.63;61.90;;;;;;;;;;5004191;28;20398;-79
2024/03/01 05:45:08;;;;;;;108.43;59.47;;;;;;;;;;5000051;28;20101;-78
2024/03/01 05:47:40;;;;;;;115.53;62.58;;;;;;;;;;5004544;28;20111;-79
2024/03/01 05:50:07;;;;;;;118.75;63.58;;;;;;;;;;5046013;28;20025;-79
2024/03/01 05:52:34;;;;;;;102.85;58.65;;;;;;;;;;5002680;28;20018;-74
2024/03/01 05:55:00;;;;;;;119.28;60.88;;;;;;;;;;5080989;28;20068;-74
2024/03/01 05:57:26;;;;;;;123.80;65.95;;;;;;;;;;5076418;28;20032;-74
2024/03/01 05:59:53;;;;;;;133.60;67.95;;;;;;;;;;5005628;28;20083;-74
2024/03/01 06:02:21;;;;;;;125.63;64.95;;;;;;;;;;5001054;28;20018;-74
2024/03/01 06:04:47;;;;;;;131.93;64.90;;;;;;;;;;5011362;28;20029;-79
2024/03/01 06:07:13;;;;;;;124.50;65.45;;;;;;;;;;5080281;28;20491;-79
2024/03/01 06:09:40;;;;;;;123.68;66.10;;;;;;;;;;5013150;28;20356;-79
2024/03/01 06:12:06;;;;;;;133.70;68.97;;;;;;;;;;5012729;28;20026;-75
2024/03/01 06:14:32;;;;;;;117.07;61.40;;;;;;;;;;5002055;28;20467;-75
2024/03/01 06:16:58;;;;;;;119.47;63.42;;;;;;;;;;5009804;28;20109;-80
2024/03/01 06:19:24;;;;;;;115.47;61.75;;;;;;;;;;5080305;28;20026;-77
2024/03/01 06:21:50;;;;;;;125.38;65.93;;;;;;;;;;5012577;28;20094;-74
2024/03/01 06:24:17;;;;;;;127.78;66.68;;;;;;;;;;5012662;28;20026;-75
2024/03/01 06:26:43;;;;;;;112.93;60.70;;;;;;;;;;5012379;28;20037;-80
2024/03/01 06:29:09;;;;;;;116.43;59.65;;;;;;;;;;5079073;28;20485;-80
2024/03/01 06:31:35;;;;;;;116.55;62.53;;;;;;;;;;5080370;28;20030;-75
2024/03/01 06:34:01;;;;;;;113.43;60.33;;;;;;;;;;5079755;28;20049;-75
2024/03/01 06:36:27;;;;;;;105.25;58.80;;;;;;;;;;5006279;28;20023;-74
2024/03/01 06:38:53;;;;;;;106.75;59.72;;;;;;;;;;5005048;28;20034;-75
2024/03/01 06:41:19;;;;;;;109.07;59.25;;;;;;;;;;5011291;28;20048;-75
2024/03/01 06:43:45;;;;;;;111.28;62.03;;;;;;;;;;5078562;28;20109;-75
2024/03/01 06:46:11;;;;;;;107.30;60.63;;;;;;;;;;5003437;28;20038;-75
2024/03/01 06:48:37;;;;;;;109.60;61.10;;;;;;;;;;5077559;28;20499;-75
2024/03/01 06:51:03;;;;;;;104.28;59.97;;;;;;;;;;5010007;28;20034;-75
2024/03/01 06:53:31;;;;;;;113.40;62.75;;;;;;;;;;5077924;28;20056;-75
2024/03/01 06:55:57;;;;;;;107.28;60.17;;;;;;;;;;5008681;28;20014;-75
2024/03/01 06:58:23;;;;;;;111.82;61.60;;;;;;;;;;5075041;28;20067;-75
2024/03/01 07:00:49;;;;;;;122.80;67.63;;;;;;;;;;5076480;28;20036;-81
2024/03/01 07:03:15;;;;;;;117.57;66.72;;;;;;;;;;5006425;28;20434;-81
2024/03/01 07:05:41;;;;;;;116.40;67.60;;;;;;;;;;5078011;28;20025;-81
2024/03/01 07:08:08;;;;;;;109.60;61.83;;;;;;;;;;5009412;28;20034;-80
2024/03/01 07:10:34;;;;;;;113.78;63.10;;;;;;;;;;5068447;28;20029;-81
2024/03/01 07:13:00;;;;;;;103.80;60.90;;;;;;;;;;5077231;28;20053;-81
2024/03/01 07:15:29;;;;;;;106.50;62.75;;;;;;;;;;5009078;28;20018;-80
2024/03/01 07:17:55;;;;;;;114.15;61.63;;;;;;;;;;5009174;28;20164;-81
2024/03/01 07:20:22;;;;;;;101.25;56.83;;;;;;;;;;5009059;28;20030;-81
2024/03/01 07:22:49;;;;;;;96.78;60.40;;;;;;;;;;5076735;28;20026;-81
2024/03/01 07:25:15;;;;;;;99.57;57.17;;;;;;;;;;5074487;28;20434;-75
2024/03/01 07:27:41;;;;;;;102.20;59.83;;;;;;;;;;5001682;28;20065;-75
2024/03/01 07:30:09;;;;;;;109.45;62.72;;;;;;;;;;5075213;28;20396;-81
2024/03/01 07:32:35;;;;;;;104.32;59.47;;;;;;;;;;5002332;28;20034;-75
2024/03/01 07:35:08;;;;;;;105.68;64.05;;;;;;;;;;5077439;28;20544;-75
2024/03/01 07:37:34;;;;;;;99.80;62.78;;;;;;;;;;5003296;28;20118;-81
2024/03/01 07:40:01;;;;;;;97.85;57.33;;;;;;;;;;5069717;28;20072;-81
2024/03/01 07:42:27;;;;;;;103.55;61.47;;;;;;;;;;4999504;28;20105;-81
2024/03/01 07:44:55;;;;;;;97.15;60.03;;;;;;;;;;5011187;28;20086;-81
2024/03/01 07:47:24;;;;;;;92.55;56.55;;;;;;;;;;5011208;28;20034;-81
2024/03/01 07:49:50;;;;;;;105.05;57.60;;;;;;;;;;5076490;28;20487;-75
2024/03/01 07:52:16;;;;;;;103.22;60.22;;;;;;;;;;5011200;28;20014;-75
2024/03/01 07:54:42;;;;;;;104.85;57.45;;;;;;;;;;5079053;28;20030;-75
2024/03/01 07:57:09;;;;;;;105.22;57.55;;;;;;;;;;5078864;28;20085;-75
2024/03/01 07:59:35;;;;;;;98.07;55.80;;;;;;;;;;5078885;28;20026;-75
2024/03/01 08:02:02;;;;;;;95.30;57.92;;;;;;;;;;5010279;28;20018;-81
2024/03/01 08:04:28;;;;;;;103.50;59.63;;;;;;;;;;5001642;28;20022;-81
2024/03/01 08:06:55;;;;;;;99.50;57.20;;;;;;;;;;5078260;28;20077;-81
2024/03/01 08:09:27;;;;;;;93.78;54.08;;;;;;;;;;5011186;28;20113;-75
2024/03/01 08:11:54;;;;;;;96.63;54.30;;;;;;;;;;5087859;28;20064;-75
2024/03/01 08:14:33;;;;;;;92.32;53.53;;;;;;;;;;5011043;28;20607;-81
2024/03/01 08:16:59;;;;;;;90.68;50.25;;;;;;;;;;5078500;28;20037;-82
2024/03/01 08:19:41;;;;;;;93.47;52.85;;;;;;;;;;5078726;28;20484;-80
2024/03/01 08:22:13;;;;;;;93.57;51.50;;;;;;;;;;5068261;28;20025;-75
2024/03/01 08:24:41;;;;;;;97.78;55.33;;;;;;;;;;5006992;28;20030;-81
2024/03/01 08:27:08;;;;;;;94.97;55.13;;;;;;;;;;5078525;28;20041;-81
2024/03/01 08:29:35;;;;;;;89.93;54.00;;;;;;;;;;5010733;28;20022;-75
2024/03/01 08:32:02;;;;;;;104.30;59.20;;;;;;;;;;5002172;28;20038;-80
2024/03/01 08:34:34;;;;;;;99.35;57.88;;;;;;;;;;5007379;28;20017;-81
2024/03/01 08:37:00;;;;;;;97.60;55.70;;;;;;;;;;5078006;28;20026;-81
2024/03/01 08:39:27;;;;;;;98.20;55.63;;;;;;;;;;5007806;28;20053;-75
2024/03/01 08:41:55;;;;;;;92.78;55.70;;;;;;;;;;5005432;28;20430;-76
2024/03/01 08:44:37;;;;;;;93.38;54.92;;;;;;;;;;5089922;28;20331;-75
2024/03/01 08:47:03;;;;;;;100.85;57.30;;;;;;;;;;5080039;28;20045;-81
2024/03/01 08:49:29;;;;;;;89.80;54.88;;;;;;;;;;5063994;28;20095;-75
2024/03/01 08:51:55;;;;;;;91.82;54.67;;;;;;;;;;5076625;28;20048;-80
2024/03/01 08:54:26;;;;;;;95.75;53.75;;;;;;;;;;5071991;28;20088;-80
2024/03/01 08:57:20;;;;;;;91.30;49.85;;;;;;;;;;5076077;28;20515;-81
2024/03/01 08:59:48;;;;;;;85.35;50.28;;;;;;;;;;5074293;28;20051;-75
2024/03/01 09:02:37;;;;;;;90.10;47.45;;;;;;;;;;5072049;28;20047;-75
2024/03/01 09:05:04;;;;;;;82.55;49.35;;;;;;;;;;5074903;28;20020;-76
2024/03/01 09:07:31;;;;;;;82.22;49.53;;;;;;;;;;5072593;28;20056;-81
2024/03/01 09:09:57;;;;;;;83.90;48.00;;;;;;;;;;5074981;28;20480;-75
2024/03/01 09:12:25;;;;;;;82.55;48.03;;;;;;;;;;5072360;28;20024;-75
2024/03/01 09:14:53;;;;;;;72.47;42.88;;;;;;;;;;5074526;28;20069;-75
2024/03/01 09:17:19;;;;;;;78.82;42.67;;;;;;;;;;5071410;28;20040;-75
2024/03/01 09:19:48;;;;;;;70.45;41.67;;;;;;;;;;5074634;28;20039;-75
2024/03/01 09:22:16;;;;;;;72.25;42.10;;;;;;;;;;5072518;28;20020;-81
2024/03/01 09:24:43;;;;;;;68.68;40.08;;;;;;;;;;5071708;28;20028;-79
2024/03/01 09:27:11;;;;;;;62.55;38.22;;;;;;;;;;5072833;28;20017;-75
2024/03/01 09:29:37;;;;;;;76.10;41.10;;;;;;;;;;5076310;28;20028;-81
2024/03/01 09:32:05;;;;;;;65.22;37.33;;;;;;;;;;5072782;28;20485;-81
2024/03/01 09:34:35;;;;;;;63.15;38.10;;;;;;;;;;5074715;28;20367;-81
2024/03/01 09:37:02;;;;;;;65.10;37.47;;;;;;;;;;5073390;28;20036;-80
2024/03/01 09:39:30;;;;;;;62.92;38.15;;;;;;;;;;5085933;28;20029;-75
2024/03/01 09:42:04;;;;;;;62.60;36.92;;;;;;;;;;5087361;28;20028;-75
2024/03/01 09:44:39;;;;;;;63.22;38.10;;;;;;;;;;5088277;28;20036;-81
2024/03/01 09:47:09;;;;;;;62.70;36.97;;;;;;;;;;5088012;28;20031;-75
2024/03/01 09:49:38;;;;;;;61.35;39.13;;;;;;;;;;5077122;28;20031;-81
2024/03/01 09:52:04;;;;;;;67.82;38.72;;;;;;;;;;5077005;28;20038;-74
2024/03/01 09:54:36;;;;;;;65.88;40.13;;;;;;;;;;5067613;28;20028;-75
2024/03/01 09:57:05;;;;;;;64.80;38.22;;;;;;;;;;5060196;28;20473;-80
2024/03/01 09:59:32;;;;;;;63.67;36.92;;;;;;;;;;5061378;28;20049;-81
2024/03/01 10:02:10;;;;;;;69.82;39.03;;;;;;;;;;5059916;28;20116;-74
2024/03/01 10:04:54;;;;;;;60.20;37.10;;;;;;;;;;5064913;28;20441;-80
2024/03/01 10:07:23;;;;;;;57.33;36.42;;;;;;;;;;5050512;28;20032;-75
2024/03/01 10:10:08;;;;;;;67.00;37.45;;;;;;;;;;5064694;28;20103;-80
2024/03/01 10:12:53;;;;;;;62.45;36.92;;;;;;;;;;5071237;28;20021;-75
2024/03/01 10:15:22;;;;;;;56.58;36.85;;;;;;;;;;5068093;28;20021;-75
2024/03/01 10:17:51;;;;;;;62.65;37.90;;;;;;;;;;5069811;28;20024;-80
2024/03/01 10:20:20;;;;;;;54.35;36.47;;;;;;;;;;5058219;28;20101;-80
2024/03/01 10:23:00;;;;;;;63.65;36.00;;;;;;;;;;5072100;28;20107;-80
2024/03/01 10:25:49;;;;;;;58.33;35.05;;;;;;;;;;5060001;28;20100;-75
2024/03/01 10:28:15;;;;;;;56.80;34.85;;;;;;;;;;5059189;28;20024;-81
2024/03/01 10:30:51;;;;;;;56.78;33.17;;;;;;;;;;5060862;28;20025;-75
2024/03/01 10:33:29;;;;;;;58.42;35.38;;;;;;;;;;5053454;28;20146;-81
2024/03/01 10:36:07;;;;;;;55.95;34.70;;;;;;;;;;5059585;28;20024;-75
2024/03/01 10:38:59;;;;;;;61.63;36.00;;;;;;;;;;5063188;28;20047;-75
2024/03/01 10:41:48;;;;;;;61.72;35.47;;;;;;;;;;5074143;28;20025;-75
2024/03/01 10:44:31;;;;;;;61.08;36.00;;;;;;;;;;5073061;28;20399;-81
2024/03/01 10:47:13;;;;;;;59.33;36.63;;;;;;;;;;5071587;28;20036;-81
2024/03/01 10:49:59;;;;;;;57.17;34.50;;;;;;;;;;5064466;28;20024;-75
2024/03/01 10:52:29;;;;;;;61.35;36.50;;;;;;;;;;5068848;28;20471;-75
2024/03/01 10:54:56;;;;;;;64.93;36.55;;;;;;;;;;5059039;28;20027;-80
2024/03/01 10:57:23;;;;;;;59.83;35.72;;;;;;;;;;5054701;28;20500;-81
2024/03/01 10:59:56;;;;;;;66.88;37.15;;;;;;;;;;5058790;28;20483;-75
2024/03/01 11:02:29;;;;;;;67.20;40.15;;;;;;;;;;5061719;28;20021;-75
2024/03/01 11:05:05;;;;;;;60.83;36.47;;;;;;;;;;5063828;28;20024;-75
2024/03/01 11:07:41;;;;;;;60.67;38.05;;;;;;;;;;5059895;28;20449;-81
2024/03/01 11:10:20;;;;;;;62.13;37.55;;;;;;;;;;5058068;28;20021;-81
2024/03/01 11:12:52;;;;;;;64.95;37.85;;;;;;;;;;5054927;28;20052;-75
2024/03/01 11:15:19;;;;;;;60.28;36.22;;;;;;;;;;5059119;28;20036;-75
2024/03/01 11:17:48;;;;;;;56.00;34.97;;;;;;;;;;5060337;28;20096;-75
2024/03/01 11:20:17;;;;;;;57.63;34.28;;;;;;;;;;5052907;28;20017;-76
2024/03/01 11:22:47;;;;;;;61.15;34.42;;;;;;;;;;5065545;28;20032;-75
2024/03/01 11:25:19;;;;;;;61.88;38.03;;;;;;;;;;5039505;28;20021;-81
2024/03/01 11:27:51;;;;;;;68.47;39.03;;;;;;;;;;5065543;28;20481;-81
2024/03/01 11:30:20;;;;;;;64.20;36.80;;;;;;;;;;5061090;28;20032;-80
2024/03/01 11:32:49;;;;;;;60.25;35.47;;;;;;;;;;5070851;28;20024;-75
2024/03/01 11:35:38;;;;;;;59.88;36.10;;;;;;;;;;5072071;28;20417;-75
2024/03/01 11:38:08;;;;;;;60.03;35.97;;;;;;;;;;5059219;28;20025;-75
2024/03/01 11:40:52;;;;;;;65.18;35.83;;;;;;;;;;5071579;28;20064;-76
2024/03/01 11:43:21;;;;;;;58.88;35.25;;;;;;;;;;5044346;28;20048;-75
2024/03/01 11:46:23;;;;;;;56.63;35.17;;;;;;;;;;5052457;28;20032;-76
2024/03/01 11:49:05;;;;;;;56.50;34.65;;;;;;;;;;5019247;28;20108;-81
2024/03/01 11:51:38;;;;;;;54.07;33.30;;;;;;;;;;5048219;28;20041;-75
2024/03/01 11:54:18;;;;;;;62.78;34.50;;;;;;;;;;5055509;28;20282;-73
2024/03/01 11:57:04;;;;;;;55.55;33.45;;;;;;;;;;5057169;28;20044;-79
2024/03/01 11:59:44;;;;;;;59.08;32.63;;;;;;;;;;5040978;28;20054;-73
2024/03/01 12:02:16;;;;;;;54.40;30.70;;;;;;;;;;5053000;28;20083;-79
2024/03/01 12:04:57;;;;;;;54.22;31.75;;;;;;;;;;5053066;28;20037;-73
2024/03/01 12:07:35;;;;;;;54.97;30.80;;;;;;;;;;5049200;28;20087;-79
2024/03/01 12:10:20;;;;;;;53.60;31.80;;;;;;;;;;5061035;28;20051;-79
2024/03/01 12:12:50;;;;;;;52.08;30.23;;;;;;;;;;5058154;28;20033;-74
2024/03/01 12:15:42;;;;;;;52.70;28.55;;;;;;;;;;5058109;28;20459;-81
2024/03/01 12:18:14;;;;;;;51.03;30.85;;;;;;;;;;5040104;28;20036;-73
2024/03/01 12:20:46;;;;;;;47.75;29.10;;;;;;;;;;5057349;28;20051;-78
2024/03/01 12:23:23;;;;;;;54.38;29.55;;;;;;;;;;5054706;28;20051;-79
2024/03/01 12:25:49;;;;;;;52.60;30.38;;;;;;;;;;5070485;28;20428;-73
2024/03/01 12:28:24;;;;;;;44.50;29.10;;;;;;;;;;5064321;28;20079;-79
2024/03/01 12:30:57;;;;;;;50.08;31.00;;;;;;;;;;5059121;28;20035;-79
2024/03/01 12:33:38;;;;;;;55.42;30.75;;;;;;;;;;5057402;28;20469;-74
2024/03/01 12:36:08;;;;;;;53.70;30.27;;;;;;;;;;5058032;28;20021;-74
2024/03/01 12:38:39;;;;;;;55.05;32.00;;;;;;;;;;5052732;28;20025;-79
2024/03/01 12:41:15;;;;;;;54.20;31.67;;;;;;;;;;5053396;28;20020;-79
2024/03/01 12:43:44;;;;;;;51.65;29.38;;;;;;;;;;5053755;28;20079;-74
2024/03/01 12:46:10;;;;;;;52.35;31.33;;;;;;;;;;5065109;28;20021;-79
2024/03/01 12:48:48;;;;;;;56.55;31.50;;;;;;;;;;5054674;28;20427;-79
2024/03/01 12:51:25;;;;;;;53.80;31.35;;;;;;;;;;5070459;28;20095;-73
2024/03/01 12:53:57;;;;;;;46.60;28.58;;;;;;;;;;5066606;28;20445;-74
2024/03/01 12:56:31;;;;;;;53.88;31.42;;;;;;;;;;5068655;28;20028;-74
2024/03/01 12:59:09;;;;;;;53.72;32.28;;;;;;;;;;5065668;28;20052;-80
2024/03/01 13:01:52;;;;;;;53.78;31.70;;;;;;;;;;5058781;28;20040;-79
2024/03/01 13:04:18;;;;;;;52.75;31.08;;;;;;;;;;5049675;28;20044;-74
2024/03/01 13:06:46;;;;;;;55.25;31.58;;;;;;;;;;5050382;28;20025;-79
2024/03/01 13:09:19;;;;;;;49.60;29.02;;;;;;;;;;5052546;28;20021;-73
2024/03/01 13:11:47;;;;;;;55.90;31.92;;;;;;;;;;5057385;28;20540;-74
2024/03/01 13:14:16;;;;;;;51.63;33.10;;;;;;;;;;5055432;28;20017;-79
2024/03/01 13:16:42;;;;;;;53.50;32.75;;;;;;;;;;5063762;28;20021;-74
2024/03/01 13:19:18;;;;;;;60.95;34.20;;;;;;;;;;5068833;28;20422;-73
2024/03/01 13:21:48;;;;;;;64.30;36.45;;;;;;;;;;5063692;28;20029;-75
2024/03/01 13:24:33;;;;;;;60.22;38.63;;;;;;;;;;5061558;28;20408;-73
2024/03/01 13:27:18;;;;;;;64.63;37.28;;;;;;;;;;5063756;28;20084;-81
2024/03/01 13:29:47;;;;;;;66.80;35.72;;;;;;;;;;5054199;28;20496;-79
2024/03/01 13:32:40;;;;;;;61.05;35.10;;;;;;;;;;5062289;28;20505;-73
2024/03/01 13:35:13;;;;;;;57.70;36.07;;;;;;;;;;5044943;28;20123;-73
2024/03/01 13:37:57;;;;;;;66.50;39.58;;;;;;;;;;5056274;28;20349;-79
2024/03/01 13:40:37;;;;;;;68.72;37.40;;;;;;;;;;5055926;28;20055;-74
2024/03/01 13:43:05;;;;;;;69.63;39.08;;;;;;;;;;5067639;28;20409;-79
2024/03/01 13:45:35;;;;;;;65.68;37.15;;;;;;;;;;5071422;28;20032;-79
2024/03/01 13:48:22;;;;;;;72.35;41.10;;;;;;;;;;5064132;28;20431;-74
2024/03/01 13:50:48;;;;;;;66.15;38.33;;;;;;;;;;5064281;28;20020;-79
2024/03/01 13:53:15;;;;;;;76.55;42.20;;;;;;;;;;5064456;28;20524;-79
2024/03/01 13:55:42;;;;;;;75.40;43.10;;;;;;;;;;5063979;28;20385;-74
2024/03/01 13:58:08;;;;;;;73.95;41.75;;;;;;;;;;5064840;28;20417;-73
2024/03/01 14:00:35;;;;;;;69.28;41.20;;;;;;;;;;5063483;28;20056;-74
2024/03/01 14:03:02;;;;;;;69.32;40.03;;;;;;;;;;5065098;28;20029;-79
2024/03/01 14:05:30;;;;;;;74.70;41.67;;;;;;;;;;5063277;28;20028;-79
2024/03/01 14:08:00;;;;;;;82.68;41.22;;;;;;;;;;5059723;28;20029;-79
2024/03/01 14:10:27;;;;;;;71.75;41.17;;;;;;;;;;5052936;28;20021;-79
2024/03/01 14:12:53;;;;;;;74.18;42.70;;;;;;;;;;5061586;28;20028;-73
2024/03/01 14:15:21;;;;;;;72.35;41.33;;;;;;;;;;5056625;28;20403;-73
2024/03/01 14:17:47;;;;;;;76.22;42.25;;;;;;;;;;5058337;28;20033;-73
2024/03/01 14:20:15;;;;;;;77.60;43.35;;;;;;;;;;5058982;28;20021;-73
2024/03/01 14:22:51;;;;;;;79.38;43.42;;;;;;;;;;5061386;28;20033;-73